sensor_id;sensor_type;location;lat;lon;timestamp;temperature;humidity
53310;DHT22;39197;53.200;5.792;2023-04-03T00:02:17;3.80;99.90
53310;DHT22;39197;53.200;5.792;2023-04-03T00:04:42;3.70;99.90
53310;DHT22;39197;53.200;5.792;2023-04-03T00:07:08;3.70;99.90
53310;DHT22;39197;53.200;5.792;2023-04-03T00:09:34;3.70;99.90
53310;DHT22;39197;53.200;5.792;2023-04-03T00:11:59;3.60;99.90
53310;DHT22;39197;53.200;5.792;2023-04-03T00:14:26;3.60;99.90
53310;DHT22;39197;53.200;5.792;2023-04-03T00:16:53;3.60;99.90
53310;DHT22;39197;53.200;5.792;2023-04-03T00:19:18;3.50;99.90
53310;DHT22;39197;53.200;5.792;2023-04-03T00:21:44;3.50;99.90
53310;DHT22;39197;53.200;5.792;2023-04-03T00:24:10;3.50;99.90
53310;DHT22;39197;53.200;5.792;2023-04-03T00:26:36;3.50;99.90
53310;DHT22;39197;53.200;5.792;2023-04-03T00:29:02;3.50;99.90
53310;DHT22;39197;53.200;5.792;2023-04-03T00:31:27;3.40;99.90
53310;DHT22;39197;53.200;5.792;2023-04-03T00:33:53;3.40;99.90
53310;DHT22;39197;53.200;5.792;2023-04-03T00:36:19;3.30;99.90
53310;DHT22;39197;53.200;5.792;2023-04-03T00:38:45;3.30;99.90
53310;DHT22;39197;53.200;5.792;2023-04-03T00:41:10;3.20;99.90
53310;DHT22;39197;53.200;5.792;2023-04-03T00:43:36;3.20;99.90
53310;DHT22;39197;53.200;5.792;2023-04-03T00:46:02;3.20;99.90
53310;DHT22;39197;53.200;5.792;2023-04-03T00:48:36;3.10;99.90
53310;DHT22;39197;53.200;5.792;2023-04-03T00:51:04;3.10;99.90
53310;DHT22;39197;53.200;5.792;2023-04-03T00:53:35;3.10;99.90
53310;DHT22;39197;53.200;5.792;2023-04-03T00:56:06;3.00;99.90
53310;DHT22;39197;53.200;5.792;2023-04-03T00:58:46;3.00;99.90
53310;DHT22;39197;53.200;5.792;2023-04-03T01:01:18;3.00;99.90
53310;DHT22;39197;53.200;5.792;2023-04-03T01:03:45;3.00;99.90
53310;DHT22;39197;53.200;5.792;2023-04-03T01:06:11;2.90;99.90
53310;DHT22;39197;53.200;5.792;2023-04-03T01:08:36;2.90;99.90
53310;DHT22;39197;53.200;5.792;2023-04-03T01:11:02;2.90;99.90
53310;DHT22;39197;53.200;5.792;2023-04-03T01:13:31;2.90;99.90
53310;DHT22;39197;53.200;5.792;2023-04-03T01:16:01;2.90;99.90
53310;DHT22;39197;53.200;5.792;2023-04-03T01:18:27;2.80;99.90
53310;DHT22;39197;53.200;5.792;2023-04-03T01:24:18;2.80;99.90
53310;DHT22;39197;53.200;5.792;2023-04-03T01:26:46;2.80;99.90
53310;DHT22;39197;53.200;5.792;2023-04-03T01:29:12;2.80;99.90
53310;DHT22;39197;53.200;5.792;2023-04-03T01:31:43;2.80;99.90
53310;DHT22;39197;53.200;5.792;2023-04-03T01:34:08;2.70;99.90
53310;DHT22;39197;53.200;5.792;2023-04-03T01:36:34;2.80;99.90
53310;DHT22;39197;53.200;5.792;2023-04-03T01:39:00;2.70;99.90
53310;DHT22;39197;53.200;5.792;2023-04-03T01:41:26;2.80;99.90
53310;DHT22;39197;53.200;5.792;2023-04-03T01:43:52;2.70;99.90
53310;DHT22;39197;53.200;5.792;2023-04-03T01:46:19;2.70;99.90
53310;DHT22;39197;53.200;5.792;2023-04-03T01:48:45;2.70;99.90
53310;DHT22;39197;53.200;5.792;2023-04-03T01:51:11;2.70;99.90
53310;DHT22;39197;53.200;5.792;2023-04-03T01:53:37;2.60;99.90
53310;DHT22;39197;53.200;5.792;2023-04-03T01:56:03;2.70;99.90
53310;DHT22;39197;53.200;5.792;2023-04-03T01:58:29;2.60;99.90
53310;DHT22;39197;53.200;5.792;2023-04-03T02:00:55;2.60;99.90
53310;DHT22;39197;53.200;5.792;2023-04-03T02:03:21;2.60;99.90
53310;DHT22;39197;53.200;5.792;2023-04-03T02:05:47;2.60;99.90
53310;DHT22;39197;53.200;5.792;2023-04-03T02:08:12;2.60;99.90
53310;DHT22;39197;53.200;5.792;2023-04-03T02:10:39;2.50;99.90
53310;DHT22;39197;53.200;5.792;2023-04-03T02:13:05;2.50;99.90
53310;DHT22;39197;53.200;5.792;2023-04-03T02:15:31;2.50;99.90
53310;DHT22;39197;53.200;5.792;2023-04-03T02:17:56;2.50;99.90
53310;DHT22;39197;53.200;5.792;2023-04-03T02:20:22;2.50;99.90
53310;DHT22;39197;53.200;5.792;2023-04-03T02:22:48;2.50;99.90
53310;DHT22;39197;53.200;5.792;2023-04-03T02:25:13;2.40;99.90
53310;DHT22;39197;53.200;5.792;2023-04-03T02:27:39;2.40;99.90
53310;DHT22;39197;53.200;5.792;2023-04-03T02:30:05;2.40;99.90
53310;DHT22;39197;53.200;5.792;2023-04-03T02:32:32;2.30;99.90
53310;DHT22;39197;53.200;5.792;2023-04-03T02:34:57;2.30;99.90
53310;DHT22;39197;53.200;5.792;2023-04-03T02:37:23;2.30;99.90
53310;DHT22;39197;53.200;5.792;2023-04-03T02:39:49;2.30;99.90
53310;DHT22;39197;53.200;5.792;2023-04-03T02:42:15;2.20;99.90
53310;DHT22;39197;53.200;5.792;2023-04-03T02:44:41;2.20;99.90
53310;DHT22;39197;53.200;5.792;2023-04-03T02:47:07;2.10;99.90
53310;DHT22;39197;53.200;5.792;2023-04-03T02:49:32;2.10;99.90
53310;DHT22;39197;53.200;5.792;2023-04-03T02:51:58;2.10;99.90
53310;DHT22;39197;53.200;5.792;2023-04-03T02:54:23;2.10;99.90
53310;DHT22;39197;53.200;5.792;2023-04-03T02:56:53;2.00;99.90
53310;DHT22;39197;53.200;5.792;2023-04-03T02:59:18;2.00;99.90
53310;DHT22;39197;53.200;5.792;2023-04-03T03:01:44;2.00;99.90
53310;DHT22;39197;53.200;5.792;2023-04-03T03:04:09;2.00;99.90
53310;DHT22;39197;53.200;5.792;2023-04-03T03:06:35;2.00;99.90
53310;DHT22;39197;53.200;5.792;2023-04-03T03:09:01;2.00;99.90
53310;DHT22;39197;53.200;5.792;2023-04-03T03:11:26;1.90;99.90
53310;DHT22;39197;53.200;5.792;2023-04-03T03:13:52;1.90;99.90
53310;DHT22;39197;53.200;5.792;2023-04-03T03:16:17;1.90;99.90
53310;DHT22;39197;53.200;5.792;2023-04-03T03:18:43;1.90;99.90
53310;DHT22;39197;53.200;5.792;2023-04-03T03:21:09;1.90;99.90
53310;DHT22;39197;53.200;5.792;2023-04-03T03:23:35;1.90;99.90
53310;DHT22;39197;53.200;5.792;2023-04-03T03:26:06;1.80;99.90
53310;DHT22;39197;53.200;5.792;2023-04-03T03:28:32;1.80;99.90
53310;DHT22;39197;53.200;5.792;2023-04-03T03:30:58;1.80;99.90
53310;DHT22;39197;53.200;5.792;2023-04-03T03:33:25;1.80;99.90
53310;DHT22;39197;53.200;5.792;2023-04-03T03:35:52;1.80;99.90
53310;DHT22;39197;53.200;5.792;2023-04-03T03:38:18;1.80;99.90
53310;DHT22;39197;53.200;5.792;2023-04-03T03:40:43;1.70;99.90
53310;DHT22;39197;53.200;5.792;2023-04-03T03:43:09;1.70;99.90
53310;DHT22;39197;53.200;5.792;2023-04-03T03:45:34;1.70;99.90
53310;DHT22;39197;53.200;5.792;2023-04-03T03:48:01;1.70;99.90
53310;DHT22;39197;53.200;5.792;2023-04-03T03:50:26;1.60;99.90
53310;DHT22;39197;53.200;5.792;2023-04-03T03:52:52;1.60;99.90
53310;DHT22;39197;53.200;5.792;2023-04-03T03:55:18;1.60;99.90
53310;DHT22;39197;53.200;5.792;2023-04-03T03:57:43;1.60;99.90
53310;DHT22;39197;53.200;5.792;2023-04-03T04:00:09;1.60;99.90
53310;DHT22;39197;53.200;5.792;2023-04-03T04:02:35;1.50;99.90
53310;DHT22;39197;53.200;5.792;2023-04-03T04:05:01;1.50;99.90
53310;DHT22;39197;53.200;5.792;2023-04-03T04:07:27;1.50;99.90
53310;DHT22;39197;53.200;5.792;2023-04-03T04:09:54;1.50;99.90
53310;DHT22;39197;53.200;5.792;2023-04-03T04:12:20;1.50;99.90
53310;DHT22;39197;53.200;5.792;2023-04-03T04:14:46;1.40;99.90
53310;DHT22;39197;53.200;5.792;2023-04-03T04:17:12;1.40;99.90
53310;DHT22;39197;53.200;5.792;2023-04-03T04:19:38;1.40;99.90
53310;DHT22;39197;53.200;5.792;2023-04-03T04:22:04;1.30;99.90
53310;DHT22;39197;53.200;5.792;2023-04-03T04:24:29;1.40;99.90
53310;DHT22;39197;53.200;5.792;2023-04-03T04:26:55;1.30;99.90
53310;DHT22;39197;53.200;5.792;2023-04-03T04:29:21;1.30;99.90
53310;DHT22;39197;53.200;5.792;2023-04-03T04:31:46;1.30;99.90
53310;DHT22;39197;53.200;5.792;2023-04-03T04:34:12;1.30;99.90
53310;DHT22;39197;53.200;5.792;2023-04-03T04:36:39;1.20;99.90
53310;DHT22;39197;53.200;5.792;2023-04-03T04:39:05;1.30;99.90
53310;DHT22;39197;53.200;5.792;2023-04-03T04:41:31;1.20;99.90
53310;DHT22;39197;53.200;5.792;2023-04-03T04:43:57;1.20;99.90
53310;DHT22;39197;53.200;5.792;2023-04-03T04:46:22;1.10;99.90
53310;DHT22;39197;53.200;5.792;2023-04-03T04:48:48;1.20;99.90
53310;DHT22;39197;53.200;5.792;2023-04-03T04:51:15;1.10;99.90
53310;DHT22;39197;53.200;5.792;2023-04-03T04:53:41;1.20;99.90
53310;DHT22;39197;53.200;5.792;2023-04-03T04:56:06;1.20;99.90
53310;DHT22;39197;53.200;5.792;2023-04-03T04:58:32;1.10;99.90
53310;DHT22;39197;53.200;5.792;2023-04-03T05:01:02;1.10;99.90
53310;DHT22;39197;53.200;5.792;2023-04-03T05:03:28;1.20;99.90
53310;DHT22;39197;53.200;5.792;2023-04-03T05:05:54;1.10;99.90
53310;DHT22;39197;53.200;5.792;2023-04-03T05:08:20;1.20;99.90
53310;DHT22;39197;53.200;5.792;2023-04-03T05:10:46;1.10;99.90
53310;DHT22;39197;53.200;5.792;2023-04-03T05:13:13;1.10;99.90
53310;DHT22;39197;53.200;5.792;2023-04-03T05:15:39;1.10;99.90
53310;DHT22;39197;53.200;5.792;2023-04-03T05:18:05;1.10;99.90
53310;DHT22;39197;53.200;5.792;2023-04-03T05:20:31;1.10;99.90
53310;DHT22;39197;53.200;5.792;2023-04-03T05:22:57;1.10;99.90
53310;DHT22;39197;53.200;5.792;2023-04-03T05:25:22;1.00;99.90
53310;DHT22;39197;53.200;5.792;2023-04-03T05:27:49;1.10;99.90
53310;DHT22;39197;53.200;5.792;2023-04-03T05:30:14;1.00;99.90
53310;DHT22;39197;53.200;5.792;2023-04-03T05:32:40;1.00;99.90
53310;DHT22;39197;53.200;5.792;2023-04-03T05:35:07;1.00;99.90
53310;DHT22;39197;53.200;5.792;2023-04-03T05:37:33;1.00;99.90
53310;DHT22;39197;53.200;5.792;2023-04-03T05:39:58;1.00;99.90
53310;DHT22;39197;53.200;5.792;2023-04-03T05:42:24;1.00;99.90
53310;DHT22;39197;53.200;5.792;2023-04-03T05:44:50;1.00;99.90
53310;DHT22;39197;53.200;5.792;2023-04-03T05:47:16;1.00;99.90
53310;DHT22;39197;53.200;5.792;2023-04-03T05:49:42;1.00;99.90
53310;DHT22;39197;53.200;5.792;2023-04-03T05:52:26;1.10;99.90
53310;DHT22;39197;53.200;5.792;2023-04-03T05:54:52;1.10;99.90
53310;DHT22;39197;53.200;5.792;2023-04-03T05:57:18;1.10;99.90
53310;DHT22;39197;53.200;5.792;2023-04-03T05:59:45;1.10;99.90
53310;DHT22;39197;53.200;5.792;2023-04-03T06:02:17;1.10;99.90
53310;DHT22;39197;53.200;5.792;2023-04-03T06:04:43;1.20;99.90
53310;DHT22;39197;53.200;5.792;2023-04-03T06:07:14;1.20;99.90
53310;DHT22;39197;53.200;5.792;2023-04-03T06:09:41;1.20;99.90
53310;DHT22;39197;53.200;5.792;2023-04-03T06:12:07;1.30;99.90
53310;DHT22;39197;53.200;5.792;2023-04-03T06:14:33;1.20;99.90
53310;DHT22;39197;53.200;5.792;2023-04-03T06:16:59;1.30;99.90
53310;DHT22;39197;53.200;5.792;2023-04-03T06:19:25;1.30;99.90
53310;DHT22;39197;53.200;5.792;2023-04-03T06:21:51;1.30;99.90
53310;DHT22;39197;53.200;5.792;2023-04-03T06:24:17;1.30;99.90
53310;DHT22;39197;53.200;5.792;2023-04-03T06:26:44;1.30;99.90
53310;DHT22;39197;53.200;5.792;2023-04-03T06:29:09;1.30;99.90
53310;DHT22;39197;53.200;5.792;2023-04-03T06:31:35;1.40;99.90
53310;DHT22;39197;53.200;5.792;2023-04-03T06:34:02;1.40;99.90
53310;DHT22;39197;53.200;5.792;2023-04-03T06:36:28;1.40;99.90
53310;DHT22;39197;53.200;5.792;2023-04-03T06:38:54;1.40;99.90
53310;DHT22;39197;53.200;5.792;2023-04-03T06:41:20;1.50;99.90
53310;DHT22;39197;53.200;5.792;2023-04-03T06:43:46;1.50;99.90
53310;DHT22;39197;53.200;5.792;2023-04-03T06:46:16;1.60;99.90
53310;DHT22;39197;53.200;5.792;2023-04-03T06:48:43;1.70;99.90
53310;DHT22;39197;53.200;5.792;2023-04-03T06:51:21;1.70;99.90
53310;DHT22;39197;53.200;5.792;2023-04-03T06:53:48;1.80;99.90
53310;DHT22;39197;53.200;5.792;2023-04-03T06:56:14;1.90;99.90
53310;DHT22;39197;53.200;5.792;2023-04-03T06:58:40;2.00;99.90
53310;DHT22;39197;53.200;5.792;2023-04-03T07:01:07;2.40;99.90
53310;DHT22;39197;53.200;5.792;2023-04-03T07:03:33;3.20;99.90
53310;DHT22;39197;53.200;5.792;2023-04-03T07:05:58;4.00;99.90
53310;DHT22;39197;53.200;5.792;2023-04-03T07:08:24;4.60;99.90
53310;DHT22;39197;53.200;5.792;2023-04-03T07:10:51;4.90;99.90
53310;DHT22;39197;53.200;5.792;2023-04-03T07:13:17;5.50;99.90
53310;DHT22;39197;53.200;5.792;2023-04-03T07:15:42;5.90;99.90
53310;DHT22;39197;53.200;5.792;2023-04-03T07:18:08;6.00;99.90
53310;DHT22;39197;53.200;5.792;2023-04-03T07:20:33;6.00;99.90
53310;DHT22;39197;53.200;5.792;2023-04-03T07:22:59;6.70;99.90
53310;DHT22;39197;53.200;5.792;2023-04-03T07:25:27;6.70;99.90
53310;DHT22;39197;53.200;5.792;2023-04-03T07:27:55;6.70;99.90
53310;DHT22;39197;53.200;5.792;2023-04-03T07:30:20;6.80;99.90
53310;DHT22;39197;53.200;5.792;2023-04-03T07:32:46;7.60;99.90
53310;DHT22;39197;53.200;5.792;2023-04-03T07:37:41;8.60;99.90
53310;DHT22;39197;53.200;5.792;2023-04-03T07:40:07;8.40;99.90
53310;DHT22;39197;53.200;5.792;2023-04-03T07:42:34;8.50;99.90
53310;DHT22;39197;53.200;5.792;2023-04-03T07:45:00;7.60;99.90
53310;DHT22;39197;53.200;5.792;2023-04-03T07:47:27;7.90;99.90
53310;DHT22;39197;53.200;5.792;2023-04-03T07:49:52;7.70;99.90
53310;DHT22;39197;53.200;5.792;2023-04-03T07:52:18;7.90;99.90
53310;DHT22;39197;53.200;5.792;2023-04-03T07:54:44;8.50;99.90
53310;DHT22;39197;53.200;5.792;2023-04-03T07:57:09;8.40;99.90
53310;DHT22;39197;53.200;5.792;2023-04-03T07:59:35;8.50;99.90
53310;DHT22;39197;53.200;5.792;2023-04-03T08:02:01;8.80;99.90
53310;DHT22;39197;53.200;5.792;2023-04-03T08:04:27;8.80;99.90
53310;DHT22;39197;53.200;5.792;2023-04-03T08:06:53;9.20;99.90
53310;DHT22;39197;53.200;5.792;2023-04-03T08:09:18;9.10;99.90
53310;DHT22;39197;53.200;5.792;2023-04-03T08:11:45;9.90;99.90
53310;DHT22;39197;53.200;5.792;2023-04-03T08:14:11;9.70;99.90
53310;DHT22;39197;53.200;5.792;2023-04-03T08:16:42;10.10;99.90
53310;DHT22;39197;53.200;5.792;2023-04-03T08:19:08;10.20;99.90
53310;DHT22;39197;53.200;5.792;2023-04-03T08:21:34;10.40;99.90
53310;DHT22;39197;53.200;5.792;2023-04-03T08:23:59;10.00;99.90
53310;DHT22;39197;53.200;5.792;2023-04-03T08:26:25;10.10;99.90
53310;DHT22;39197;53.200;5.792;2023-04-03T08:28:52;10.50;99.90
53310;DHT22;39197;53.200;5.792;2023-04-03T08:31:18;10.20;99.90
53310;DHT22;39197;53.200;5.792;2023-04-03T08:33:45;11.10;99.90
53310;DHT22;39197;53.200;5.792;2023-04-03T08:36:26;11.20;99.90
53310;DHT22;39197;53.200;5.792;2023-04-03T08:38:53;11.00;98.80
53310;DHT22;39197;53.200;5.792;2023-04-03T08:41:34;11.40;98.10
53310;DHT22;39197;53.200;5.792;2023-04-03T08:44:22;11.60;97.90
53310;DHT22;39197;53.200;5.792;2023-04-03T08:49:33;12.00;94.60
53310;DHT22;39197;53.200;5.792;2023-04-03T08:52:10;12.00;93.00
53310;DHT22;39197;53.200;5.792;2023-04-03T08:54:54;12.50;93.60
53310;DHT22;39197;53.200;5.792;2023-04-03T08:57:32;13.00;93.10
53310;DHT22;39197;53.200;5.792;2023-04-03T09:00:04;12.90;92.00
53310;DHT22;39197;53.200;5.792;2023-04-03T09:02:41;12.70;91.70
53310;DHT22;39197;53.200;5.792;2023-04-03T09:05:14;13.40;91.30
53310;DHT22;39197;53.200;5.792;2023-04-03T09:07:44;13.30;90.00
53310;DHT22;39197;53.200;5.792;2023-04-03T09:10:13;13.20;88.00
53310;DHT22;39197;53.200;5.792;2023-04-03T09:12:42;13.50;89.30
53310;DHT22;39197;53.200;5.792;2023-04-03T09:15:22;14.60;85.90
53310;DHT22;39197;53.200;5.792;2023-04-03T09:18:14;14.10;79.20
53310;DHT22;39197;53.200;5.792;2023-04-03T09:23:28;12.60;81.50
53310;DHT22;39197;53.200;5.792;2023-04-03T09:26:04;13.10;80.90
53310;DHT22;39197;53.200;5.792;2023-04-03T09:28:35;12.60;78.90
53310;DHT22;39197;53.200;5.792;2023-04-03T09:31:05;13.10;76.70
53310;DHT22;39197;53.200;5.792;2023-04-03T09:33:40;13.40;75.00
53310;DHT22;39197;53.200;5.792;2023-04-03T09:36:06;13.60;74.70
53310;DHT22;39197;53.200;5.792;2023-04-03T09:38:34;13.60;75.00
53310;DHT22;39197;53.200;5.792;2023-04-03T09:41:16;13.10;74.70
53310;DHT22;39197;53.200;5.792;2023-04-03T09:43:52;13.50;71.20
53310;DHT22;39197;53.200;5.792;2023-04-03T09:46:32;13.60;72.00
53310;DHT22;39197;53.200;5.792;2023-04-03T09:49:01;13.80;73.90
53310;DHT22;39197;53.200;5.792;2023-04-03T09:51:28;13.70;70.60
53310;DHT22;39197;53.200;5.792;2023-04-03T09:53:55;13.30;70.40
53310;DHT22;39197;53.200;5.792;2023-04-03T10:01:33;14.00;70.20
53310;DHT22;39197;53.200;5.792;2023-04-03T10:04:10;15.00;70.50
53310;DHT22;39197;53.200;5.792;2023-04-03T10:06:44;14.10;69.10
53310;DHT22;39197;53.200;5.792;2023-04-03T10:09:24;14.00;67.10
53310;DHT22;39197;53.200;5.792;2023-04-03T10:12:06;14.60;66.70
53310;DHT22;39197;53.200;5.792;2023-04-03T10:17:50;15.00;65.20
53310;DHT22;39197;53.200;5.792;2023-04-03T10:20:37;14.70;62.10
53310;DHT22;39197;53.200;5.792;2023-04-03T10:26:17;14.60;62.50
53310;DHT22;39197;53.200;5.792;2023-04-03T10:29:13;14.20;62.20
53310;DHT22;39197;53.200;5.792;2023-04-03T10:31:50;14.20;63.70
53310;DHT22;39197;53.200;5.792;2023-04-03T10:34:29;14.40;65.80
53310;DHT22;39197;53.200;5.792;2023-04-03T10:37:18;14.80;64.60
53310;DHT22;39197;53.200;5.792;2023-04-03T10:48:16;13.90;63.00
53310;DHT22;39197;53.200;5.792;2023-04-03T10:53:29;15.70;62.80
53310;DHT22;39197;53.200;5.792;2023-04-03T10:56:36;15.80;63.20
53310;DHT22;39197;53.200;5.792;2023-04-03T10:59:26;16.10;59.30
53310;DHT22;39197;53.200;5.792;2023-04-03T11:01:58;15.60;60.30
53310;DHT22;39197;53.200;5.792;2023-04-03T11:04:27;14.30;60.10
53310;DHT22;39197;53.200;5.792;2023-04-03T11:07:01;14.40;61.50
53310;DHT22;39197;53.200;5.792;2023-04-03T11:09:30;14.20;61.00
53310;DHT22;39197;53.200;5.792;2023-04-03T11:12:20;14.70;61.10
53310;DHT22;39197;53.200;5.792;2023-04-03T11:14:47;13.80;60.20
53310;DHT22;39197;53.200;5.792;2023-04-03T11:17:21;13.50;61.60
53310;DHT22;39197;53.200;5.792;2023-04-03T11:22:34;14.20;61.60
53310;DHT22;39197;53.200;5.792;2023-04-03T11:25:08;13.70;60.70
53310;DHT22;39197;53.200;5.792;2023-04-03T11:27:44;14.90;61.60
53310;DHT22;39197;53.200;5.792;2023-04-03T11:30:19;14.50;60.90
53310;DHT22;39197;53.200;5.792;2023-04-03T11:35:49;15.00;61.00
53310;DHT22;39197;53.200;5.792;2023-04-03T11:38:25;14.90;60.70
53310;DHT22;39197;53.200;5.792;2023-04-03T11:40:54;14.90;61.10
53310;DHT22;39197;53.200;5.792;2023-04-03T11:43:31;15.30;60.80
53310;DHT22;39197;53.200;5.792;2023-04-03T11:46:00;14.80;60.60
53310;DHT22;39197;53.200;5.792;2023-04-03T11:50:54;14.10;61.40
53310;DHT22;39197;53.200;5.792;2023-04-03T11:53:35;14.20;62.10
53310;DHT22;39197;53.200;5.792;2023-04-03T11:56:03;14.40;61.00
53310;DHT22;39197;53.200;5.792;2023-04-03T11:58:34;15.50;61.90
53310;DHT22;39197;53.200;5.792;2023-04-03T12:04:19;16.20;59.80
53310;DHT22;39197;53.200;5.792;2023-04-03T12:06:54;15.70;59.60
53310;DHT22;39197;53.200;5.792;2023-04-03T12:09:34;14.40;60.00
53310;DHT22;39197;53.200;5.792;2023-04-03T12:12:21;14.90;60.60
53310;DHT22;39197;53.200;5.792;2023-04-03T12:14:47;15.70;60.20
53310;DHT22;39197;53.200;5.792;2023-04-03T12:17:25;15.40;59.50
53310;DHT22;39197;53.200;5.792;2023-04-03T12:19:52;15.00;59.50
53310;DHT22;39197;53.200;5.792;2023-04-03T12:22:20;15.50;60.50
53310;DHT22;39197;53.200;5.792;2023-04-03T12:24:49;16.10;59.70
53310;DHT22;39197;53.200;5.792;2023-04-03T12:27:34;15.90;60.60
53310;DHT22;39197;53.200;5.792;2023-04-03T12:30:13;16.00;59.70
53310;DHT22;39197;53.200;5.792;2023-04-03T12:38:22;17.00;60.00
53310;DHT22;39197;53.200;5.792;2023-04-03T12:41:28;16.00;59.00
53310;DHT22;39197;53.200;5.792;2023-04-03T12:44:22;16.40;58.20
53310;DHT22;39197;53.200;5.792;2023-04-03T12:46:52;15.40;60.00
53310;DHT22;39197;53.200;5.792;2023-04-03T12:49:33;15.70;60.20
53310;DHT22;39197;53.200;5.792;2023-04-03T12:51:59;14.80;59.10
53310;DHT22;39197;53.200;5.792;2023-04-03T12:54:38;14.70;59.90
53310;DHT22;39197;53.200;5.792;2023-04-03T12:59:36;14.20;58.80
53310;DHT22;39197;53.200;5.792;2023-04-03T13:02:15;14.10;59.60
53310;DHT22;39197;53.200;5.792;2023-04-03T13:04:43;14.90;59.70
53310;DHT22;39197;53.200;5.792;2023-04-03T13:07:22;16.00;59.60
53310;DHT22;39197;53.200;5.792;2023-04-03T13:09:58;15.50;59.30
53310;DHT22;39197;53.200;5.792;2023-04-03T13:12:25;15.40;60.00
53310;DHT22;39197;53.200;5.792;2023-04-03T13:14:56;15.90;59.70
53310;DHT22;39197;53.200;5.792;2023-04-03T13:17:22;16.20;59.40
53310;DHT22;39197;53.200;5.792;2023-04-03T13:19:48;15.70;60.00
53310;DHT22;39197;53.200;5.792;2023-04-03T13:22:36;15.40;60.00
53310;DHT22;39197;53.200;5.792;2023-04-03T13:25:09;14.80;60.30
53310;DHT22;39197;53.200;5.792;2023-04-03T13:27:36;15.40;61.10
53310;DHT22;39197;53.200;5.792;2023-04-03T13:30:05;16.70;60.10
53310;DHT22;39197;53.200;5.792;2023-04-03T13:32:32;15.70;59.50
53310;DHT22;39197;53.200;5.792;2023-04-03T13:34:58;15.80;61.00
53310;DHT22;39197;53.200;5.792;2023-04-03T13:37:28;15.70;60.80
53310;DHT22;39197;53.200;5.792;2023-04-03T13:40:11;15.50;60.60
53310;DHT22;39197;53.200;5.792;2023-04-03T13:42:39;15.70;59.50
53310;DHT22;39197;53.200;5.792;2023-04-03T13:45:25;15.30;60.80
53310;DHT22;39197;53.200;5.792;2023-04-03T13:48:07;16.20;60.80
53310;DHT22;39197;53.200;5.792;2023-04-03T13:50:52;16.00;61.80
53310;DHT22;39197;53.200;5.792;2023-04-03T13:53:22;16.00;60.90
53310;DHT22;39197;53.200;5.792;2023-04-03T13:56:04;16.80;61.40
53310;DHT22;39197;53.200;5.792;2023-04-03T13:58:33;16.40;60.80
53310;DHT22;39197;53.200;5.792;2023-04-03T14:06:06;16.10;61.00
53310;DHT22;39197;53.200;5.792;2023-04-03T14:08:32;16.30;60.50
53310;DHT22;39197;53.200;5.792;2023-04-03T14:10:58;16.70;61.00
53310;DHT22;39197;53.200;5.792;2023-04-03T14:13:24;16.70;60.90
53310;DHT22;39197;53.200;5.792;2023-04-03T14:15:50;16.20;60.60
53310;DHT22;39197;53.200;5.792;2023-04-03T14:18:19;16.10;61.70
53310;DHT22;39197;53.200;5.792;2023-04-03T14:20:47;15.00;62.10
53310;DHT22;39197;53.200;5.792;2023-04-03T14:23:13;15.20;62.80
53310;DHT22;39197;53.200;5.792;2023-04-03T14:25:40;15.10;62.90
53310;DHT22;39197;53.200;5.792;2023-04-03T14:28:16;15.80;61.90
53310;DHT22;39197;53.200;5.792;2023-04-03T14:30:43;16.10;61.60
53310;DHT22;39197;53.200;5.792;2023-04-03T14:33:13;15.10;62.20
53310;DHT22;39197;53.200;5.792;2023-04-03T14:35:40;14.90;62.10
53310;DHT22;39197;53.200;5.792;2023-04-03T14:38:25;14.40;61.90
53310;DHT22;39197;53.200;5.792;2023-04-03T14:40:53;15.10;62.40
53310;DHT22;39197;53.200;5.792;2023-04-03T14:43:19;15.70;62.50
53310;DHT22;39197;53.200;5.792;2023-04-03T14:45:49;15.60;61.80
53310;DHT22;39197;53.200;5.792;2023-04-03T14:48:21;15.20;61.50
53310;DHT22;39197;53.200;5.792;2023-04-03T14:50:48;15.30;62.70
53310;DHT22;39197;53.200;5.792;2023-04-03T14:53:15;15.50;61.80
53310;DHT22;39197;53.200;5.792;2023-04-03T14:55:44;15.90;61.80
53310;DHT22;39197;53.200;5.792;2023-04-03T14:58:15;15.00;61.50
53310;DHT22;39197;53.200;5.792;2023-04-03T15:00:41;14.50;61.90
53310;DHT22;39197;53.200;5.792;2023-04-03T15:03:14;14.10;62.70
53310;DHT22;39197;53.200;5.792;2023-04-03T15:05:41;15.30;62.80
53310;DHT22;39197;53.200;5.792;2023-04-03T15:08:22;15.20;63.10
53310;DHT22;39197;53.200;5.792;2023-04-03T15:10:50;15.30;62.40
53310;DHT22;39197;53.200;5.792;2023-04-03T15:13:18;14.90;64.00
53310;DHT22;39197;53.200;5.792;2023-04-03T15:15:46;15.00;63.30
53310;DHT22;39197;53.200;5.792;2023-04-03T15:18:20;14.40;64.40
53310;DHT22;39197;53.200;5.792;2023-04-03T15:20:47;14.70;64.80
53310;DHT22;39197;53.200;5.792;2023-04-03T15:23:14;15.00;65.20
53310;DHT22;39197;53.200;5.792;2023-04-03T15:25:42;15.60;65.90
53310;DHT22;39197;53.200;5.792;2023-04-03T15:28:13;15.20;67.20
53310;DHT22;39197;53.200;5.792;2023-04-03T15:30:41;15.90;67.60
53310;DHT22;39197;53.200;5.792;2023-04-03T15:33:07;15.80;67.40
53310;DHT22;39197;53.200;5.792;2023-04-03T15:35:32;16.00;68.40
53310;DHT22;39197;53.200;5.792;2023-04-03T15:37:58;15.80;69.00
53310;DHT22;39197;53.200;5.792;2023-04-03T15:40:24;15.60;69.50
53310;DHT22;39197;53.200;5.792;2023-04-03T15:42:49;15.70;70.10
53310;DHT22;39197;53.200;5.792;2023-04-03T15:45:15;15.10;70.30
53310;DHT22;39197;53.200;5.792;2023-04-03T15:47:41;15.50;70.20
53310;DHT22;39197;53.200;5.792;2023-04-03T15:50:07;15.90;70.30
53310;DHT22;39197;53.200;5.792;2023-04-03T15:52:34;15.60;70.20
53310;DHT22;39197;53.200;5.792;2023-04-03T15:55:00;14.50;70.60
53310;DHT22;39197;53.200;5.792;2023-04-03T15:57:25;13.90;71.70
53310;DHT22;39197;53.200;5.792;2023-04-03T15:59:52;14.10;71.80
53310;DHT22;39197;53.200;5.792;2023-04-03T16:02:18;14.10;71.20
53310;DHT22;39197;53.200;5.792;2023-04-03T16:04:44;14.60;70.90
53310;DHT22;39197;53.200;5.792;2023-04-03T16:07:10;14.40;70.50
53310;DHT22;39197;53.200;5.792;2023-04-03T16:09:36;14.40;69.40
53310;DHT22;39197;53.200;5.792;2023-04-03T16:12:01;14.30;70.00
53310;DHT22;39197;53.200;5.792;2023-04-03T16:14:27;14.50;69.40
53310;DHT22;39197;53.200;5.792;2023-04-03T16:16:55;14.40;69.30
53310;DHT22;39197;53.200;5.792;2023-04-03T16:19:21;14.30;70.00
53310;DHT22;39197;53.200;5.792;2023-04-03T16:21:47;13.10;70.40
53310;DHT22;39197;53.200;5.792;2023-04-03T16:24:12;13.70;70.70
53310;DHT22;39197;53.200;5.792;2023-04-03T16:26:38;13.20;70.70
53310;DHT22;39197;53.200;5.792;2023-04-03T16:29:04;13.60;71.20
53310;DHT22;39197;53.200;5.792;2023-04-03T16:31:32;13.10;71.10
53310;DHT22;39197;53.200;5.792;2023-04-03T16:33:58;12.60;72.10
53310;DHT22;39197;53.200;5.792;2023-04-03T16:36:24;12.80;72.40
53310;DHT22;39197;53.200;5.792;2023-04-03T16:38:51;13.00;72.10
53310;DHT22;39197;53.200;5.792;2023-04-03T16:41:17;13.00;72.20
53310;DHT22;39197;53.200;5.792;2023-04-03T16:43:42;12.30;72.60
53310;DHT22;39197;53.200;5.792;2023-04-03T16:46:08;12.00;73.50
53310;DHT22;39197;53.200;5.792;2023-04-03T16:48:33;12.00;74.40
53310;DHT22;39197;53.200;5.792;2023-04-03T16:50:59;12.40;73.60